AirNav   ProFlight Series 2 Aviation Headset
 
 430 users online  

OK30 Grandcraft Landing Strip Airport
Langley, Oklahoma, USA

GOING TO LANGLEY?


FAA INFORMATION EFFECTIVE 18 JUNE 2020

Location

FAA Identifier: OK30
Lat/Long: 36-29-30.3020N 095-03-00.8660W
36-29.505033N 095-03.014433W
36.4917506,-95.0502406
(estimated)
Elevation: 827 ft. / 252 m (estimated)
Variation: 05E (1985)
From city: 1 mile N of LANGLEY, OK
Time zone: UTC -5 (UTC -6 during Standard Time)
Zip code: 74301

Airport Operations

Airport use: Private use. Permission required prior to landing
Activation date: 08/1969
Control tower: no
ARTCC: KANSAS CITY CENTER
FSS: MC ALESTER FLIGHT SERVICE STATION
Attendance: UNATNDD
Wind indicator: yes
Segmented circle: no

Airport Communications

WX AWOS-3 at GMJ (17 nm NE): 119.025 (918-786-8350)

Nearby radio navigation aids

VOR radial/distance  VOR name  Freq  Var
EOSr228/36.3NEOSHO VOR/DME117.3007E
TULr056/39.8TULSA VORTAC114.4008E

 
NDB name  Hdg/Dist  Freq  Var  ID
SILOAM SPRINGS300/32.728404ESLG ... .-.. --.

Airport Services

Airframe service: NONE
Powerplant service: NONE

Runway Information

Runway N/S

Dimensions: 3000 x 150 ft. / 914 x 46 m
Surface: turf
RUNWAY N  RUNWAY S
Traffic pattern: rightright
Obstructions: treestrees

Airport Ownership and Management from official FAA records

Ownership: Privately-owned
Owner: GRAND CRAFT, INC
LANGLEY, OK 74361
Manager: G E MOOTS
PO BOX 188
PRYOR, OK 74361
Phone 918-825-2822

Additional Remarks

LIVESTOCK ON ARPT. LANDING STRIP SMOOTH.
FOR CD CTC KANSAS CITY ARTCC AT 913-254-8508.

Instrument Procedures

There are no published instrument procedures at OK30.

Some nearby airports with instrument procedures:

1K8 - South Grand Lake Regional Airport (4 nm NE)
KGMJ - Grove Municipal Airport (17 nm NE)
H71 - Mid-America Industrial Airport (21 nm SW)
KGCM - Claremore Regional Airport (24 nm SW)
KMIO - Miami Regional Airport (26 nm N)
 
Loc | Ops | Rwys | IFR | FBO | Links
Com | Nav | Svcs | Stats | Notes
Area around OK30 (Grandcraft Landing Strip Airport)
 
Road maps at: MapQuest Bing Google
 
Aerial photo
No photo
 
Sectional chart

 
Airport distance calculator
Flying to Grandcraft Landing Strip Airport? Find the distance to fly.

From to OK30

Sunrise and sunset
Times for 11-Jul-2020
 Local
(UTC-5)
 Zulu
(UTC)
Morning civil twilight05:4310:43
Sunrise06:1311:13
Sunset20:3901:39
Evening civil twilight21:0902:09

Current date and time
Zulu (UTC)  11-Jul-2020 10:44:34
Local (UTC-5)  11-Jul-2020 05:44:34
 
METAR
KGMJ 
17nm NE 
111035Z AUTO 00000KT 7SM CLR 21/20 A3002 RMK AO2
KH71 
21nm SW 
111030Z AUTO 00000KT 2SM BR CLR 21/21 A2998 RMK AO2
KGCM 
24nm SW 
111035Z AUTO 17003KT 5SM BR CLR 21/20 A3000 RMK AO2
KMIO 
26nm N 
111035Z AUTO 00000KT 7SM 22/22 A3002 RMK AO2
KSLG 
33nm SE 
110956Z AUTO 11004KT 8SM CLR 22/21 A3003 RMK AO2 SLP158 T02170211 TSNO
TAF
KXNA 
38nm E 
110520Z 1106/1206 23004KT P6SM SKC FM111700 21008KT P6SM SCT100 FM120000 21006KT P6SM VCTS SCT050CB PROB30 1200/1206 5SM -TSRA BKN035CB
KTUL 
44nm SW 
110520Z 1106/1206 18006KT P6SM SKC FM111200 17007KT P6SM SCT090 FM112200 17008KT P6SM SCT050 PROB30 1122/1204 5SM -TSRA BKN050CB FM120400 15007KT P6SM VCTS BKN050CB
KROG 
47nm E 
110520Z 1106/1206 19003KT P6SM SKC FM111700 20008KT P6SM SCT100 FM120000 22006KT P6SM VCTS SCT050CB PROB30 1200/1206 5SM -TSRA BKN035CB
KJLN 
48nm NE 
110520Z 1106/1206 VRB04KT P6SM SKC FM112100 25007KT P6SM SCT250 PROB30 1121/1124 4SM -SHRA OVC050 FM120100 29005KT P6SM BKN150 FM120300 02005KT P6SM SCT200
NOTAMs
Click for the latest NOTAMs
NOTAMs are issued by the DoD/FAA and will open in a separate window not controlled by AirNav.

 

 
 

Would you like to see your business listed on this page?

 If your business provides an interesting product or service to pilots, flight crews, aircraft, or users of the Grandcraft Landing Strip Airport, you should consider listing it here.  To start the listing process, click on the button below
 
Add a business
 

Other Pages about Grandcraft Landing Strip Airport

Update a link
 
Copyright © AirNav, LLC. All rights reserved. Privacy Policy  Contact